createdAt,value
2019-04-29T00:00:51.235Z,6.03
2019-04-29T00:03:23.891Z,3.80
2019-04-29T00:05:52.405Z,3.77
2019-04-29T00:08:20.859Z,3.92
2019-04-29T00:10:49.544Z,4.35
2019-04-29T00:13:18.147Z,3.95
2019-04-29T00:15:48.371Z,4.05
2019-04-29T00:18:21.103Z,3.92
2019-04-29T00:20:51.163Z,3.80
2019-04-29T00:23:19.837Z,3.40
2019-04-29T00:25:48.442Z,4.08
2019-04-29T00:28:17.073Z,4.03
2019-04-29T00:30:45.720Z,4.20
2019-04-29T00:33:15.031Z,4.00
2019-04-29T00:35:43.667Z,3.92
2019-04-29T00:38:13.739Z,4.08
2019-04-29T00:41:02.062Z,3.85
2019-04-29T00:43:37.807Z,4.45
2019-04-29T00:46:06.901Z,4.85
2019-04-29T00:48:35.451Z,4.40
2019-04-29T00:51:03.971Z,3.92
2019-04-29T00:53:32.643Z,3.83
2019-04-29T00:56:02.826Z,3.40
2019-04-29T00:58:31.335Z,3.05
2019-04-29T01:00:59.973Z,3.30
2019-04-29T01:03:28.479Z,3.37
2019-04-29T01:05:56.980Z,3.20
2019-04-29T01:08:25.854Z,3.33
2019-04-29T01:10:54.576Z,3.30
2019-04-29T01:13:23.010Z,3.65
2019-04-29T01:15:51.615Z,3.12
2019-04-29T01:18:20.139Z,3.05
2019-04-29T01:20:48.678Z,3.15
2019-04-29T01:23:17.109Z,2.62
2019-04-29T01:25:47.337Z,3.02
2019-04-29T01:28:26.401Z,2.95
2019-04-29T01:31:04.081Z,2.83
2019-04-29T01:33:32.886Z,2.72
2019-04-29T01:36:03.261Z,2.02
2019-04-29T01:38:31.885Z,2.20
2019-04-29T01:41:08.309Z,2.25
2019-04-29T01:43:55.304Z,2.52
2019-04-29T01:46:24.007Z,2.27
2019-04-29T01:48:52.714Z,2.40
2019-04-29T01:51:21.235Z,2.30
2019-04-29T01:53:49.672Z,2.10
2019-04-29T01:56:18.130Z,1.90
2019-04-29T01:58:46.567Z,1.77
2019-04-29T02:01:15.274Z,2.05
2019-04-29T02:03:44.426Z,2.22
2019-04-29T02:06:12.958Z,2.02
2019-04-29T02:08:41.843Z,2.47
2019-04-29T02:11:10.307Z,2.33
2019-04-29T02:13:38.743Z,2.20
2019-04-29T02:16:07.400Z,2.92
2019-04-29T02:18:35.847Z,2.80
2019-04-29T02:21:04.450Z,2.33
2019-04-29T02:23:34.559Z,2.70
2019-04-29T02:26:03.163Z,2.60
2019-04-29T02:28:31.713Z,2.20
2019-04-29T02:31:01.950Z,2.52
2019-04-29T02:33:30.457Z,3.15
2019-04-29T02:35:58.924Z,3.52
2019-04-29T02:38:31.769Z,3.30
2019-04-29T02:41:08.224Z,3.12
2019-04-29T02:43:38.393Z,2.72
2019-04-29T02:46:06.916Z,2.95
2019-04-29T02:48:35.381Z,2.72
2019-04-29T02:51:03.980Z,2.90
2019-04-29T02:53:32.582Z,2.87
2019-04-29T02:56:01.208Z,2.92
2019-04-29T02:58:47.978Z,2.58
2019-04-29T03:01:33.185Z,3.05
2019-04-29T03:04:06.039Z,3.52
2019-04-29T03:06:34.461Z,3.17
2019-04-29T03:09:03.935Z,3.52
2019-04-29T03:11:32.444Z,3.45
2019-04-29T03:14:00.975Z,2.87
2019-04-29T03:16:29.575Z,2.95
2019-04-29T03:18:59.830Z,3.30
2019-04-29T03:21:39.291Z,3.33
2019-04-29T03:24:07.930Z,3.40
2019-04-29T03:26:36.432Z,2.92
2019-04-29T03:29:07.407Z,3.35
2019-04-29T03:31:39.322Z,3.15
2019-04-29T03:34:06.194Z,3.22
2019-04-29T03:36:34.725Z,3.27
2019-04-29T03:39:04.099Z,2.98
2019-04-29T03:41:32.842Z,3.02
2019-04-29T03:44:01.362Z,3.12
2019-04-29T03:46:34.247Z,3.40
2019-04-29T03:49:02.702Z,2.90
2019-04-29T03:51:31.314Z,3.22
2019-04-29T03:53:59.964Z,3.35
2019-04-29T03:56:28.825Z,2.98
2019-04-29T03:58:57.432Z,3.08
2019-04-29T04:01:27.580Z,3.17
2019-04-29T04:04:06.684Z,3.47
2019-04-29T04:06:49.000Z,3.42
2019-04-29T04:09:19.192Z,3.47
2019-04-29T04:11:47.969Z,3.27
2019-04-29T04:14:16.499Z,3.20
2019-04-29T04:16:58.288Z,3.45
2019-04-29T04:19:28.397Z,3.30
2019-04-29T04:21:56.860Z,3.33
2019-04-29T04:24:25.358Z,3.42
2019-04-29T04:26:53.886Z,3.22
2019-04-29T04:29:22.410Z,3.17
2019-04-29T04:31:50.947Z,3.27
2019-04-29T04:34:19.461Z,3.27
2019-04-29T04:36:47.995Z,2.92
2019-04-29T04:39:16.446Z,2.90
2019-04-29T04:41:44.897Z,3.22
2019-04-29T04:44:13.578Z,3.45
2019-04-29T04:46:42.044Z,3.47
2019-04-29T04:49:10.500Z,4.45
2019-04-29T04:51:39.040Z,4.35
2019-04-29T04:54:07.543Z,4.92
2019-04-29T04:56:36.046Z,4.78
2019-04-29T04:59:04.697Z,4.08
2019-04-29T05:01:33.244Z,3.83
2019-04-29T05:04:01.758Z,5.05
2019-04-29T05:06:30.590Z,5.10
2019-04-29T05:08:59.109Z,4.35
2019-04-29T05:11:27.569Z,4.58
2019-04-29T05:13:56.162Z,4.55
2019-04-29T05:16:24.694Z,4.90
2019-04-29T05:18:53.134Z,4.60
2019-04-29T05:21:21.635Z,4.62
2019-04-29T05:23:50.140Z,5.00
2019-04-29T05:26:18.670Z,6.10
2019-04-29T05:28:47.094Z,5.33
2019-04-29T05:31:15.742Z,6.72
2019-04-29T05:33:44.370Z,6.03
2019-04-29T05:36:14.496Z,6.80
2019-04-29T05:38:44.726Z,5.83
2019-04-29T05:41:13.258Z,6.10
2019-04-29T05:43:43.362Z,6.12
2019-04-29T05:46:17.442Z,5.58
2019-04-29T05:48:43.983Z,5.33
2019-04-29T05:51:16.843Z,5.72
2019-04-29T05:53:47.781Z,6.03
2019-04-29T05:56:17.144Z,5.12
2019-04-29T05:58:45.614Z,5.15
2019-04-29T06:01:15.771Z,5.87
2019-04-29T06:03:44.648Z,6.35
2019-04-29T06:06:13.093Z,5.30
2019-04-29T06:08:41.626Z,6.30
2019-04-29T06:11:10.195Z,6.50
2019-04-29T06:13:38.799Z,7.28
2019-04-29T06:16:07.250Z,5.75
2019-04-29T06:18:35.925Z,7.50
2019-04-29T06:21:09.196Z,6.87
2019-04-29T06:23:34.884Z,4.50
2019-04-29T06:26:03.412Z,6.58
2019-04-29T06:28:31.883Z,7.70
2019-04-29T06:31:00.487Z,6.95
2019-04-29T06:33:30.900Z,7.10
2019-04-29T06:35:59.151Z,7.72
2019-04-29T06:38:27.666Z,7.75
2019-04-29T06:40:56.195Z,7.78
2019-04-29T06:43:28.427Z,8.45
2019-04-29T06:45:54.850Z,8.75
2019-04-29T06:48:23.340Z,8.68
2019-04-29T06:50:51.913Z,8.55
2019-04-29T06:53:21.228Z,8.35
2019-04-29T06:55:50.712Z,9.10
2019-04-29T06:58:19.145Z,8.23
2019-04-29T07:00:50.742Z,10.03
2019-04-29T07:03:21.062Z,8.70
2019-04-29T07:05:51.374Z,8.15
2019-04-29T07:08:18.499Z,9.38
2019-04-29T07:10:48.856Z,8.50
2019-04-29T07:13:17.948Z,8.87
2019-04-29T07:15:50.303Z,7.75
2019-04-29T07:18:18.990Z,7.85
2019-04-29T07:20:47.538Z,7.75
2019-04-29T07:23:16.046Z,7.67
2019-04-29T07:25:44.500Z,7.80
2019-04-29T07:28:13.901Z,8.25
2019-04-29T07:31:00.375Z,8.30
2019-04-29T07:33:13.407Z,8.33
2019-04-29T07:35:42.855Z,9.25
2019-04-29T07:38:12.126Z,6.37
2019-04-29T07:40:43.460Z,7.20
2019-04-29T07:43:10.838Z,5.23
2019-04-29T07:45:44.264Z,7.42
2019-04-29T07:48:11.191Z,7.83
2019-04-29T07:50:39.666Z,7.35
2019-04-29T07:53:08.326Z,7.28
2019-04-29T07:55:36.870Z,8.88
2019-04-29T07:58:05.413Z,7.28
2019-04-29T08:00:37.319Z,6.95
2019-04-29T08:03:07.710Z,7.80
2019-04-29T08:05:36.462Z,7.60
2019-04-29T08:08:05.709Z,7.53
2019-04-29T08:10:34.237Z,7.28
2019-04-29T08:13:03.242Z,7.25
2019-04-29T08:15:32.191Z,7.28
2019-04-29T08:18:06.662Z,7.20
2019-04-29T08:20:31.151Z,6.73
2019-04-29T08:23:02.514Z,5.47
2019-04-29T08:25:29.805Z,5.78
2019-04-29T08:27:58.552Z,4.92
2019-04-29T08:30:27.079Z,5.53
2019-04-29T08:32:55.620Z,5.35
2019-04-29T08:35:24.183Z,4.83
2019-04-29T08:37:52.731Z,5.35
2019-04-29T08:40:21.317Z,4.30
2019-04-29T08:42:51.495Z,4.20
2019-04-29T08:45:21.677Z,5.15
2019-04-29T08:47:51.100Z,4.72
2019-04-29T08:50:19.584Z,5.00
2019-04-29T08:52:48.133Z,4.60
2019-04-29T08:55:19.292Z,4.92
2019-04-29T08:57:47.163Z,5.65
2019-04-29T09:00:16.447Z,5.33
2019-04-29T09:02:47.306Z,4.70
2019-04-29T09:05:15.455Z,4.17
2019-04-29T09:07:44.031Z,4.70
2019-04-29T09:10:13.021Z,4.75
2019-04-29T09:12:41.557Z,3.92
2019-04-29T09:15:11.244Z,4.37
2019-04-29T09:17:39.774Z,4.20
2019-04-29T09:20:08.754Z,3.60
2019-04-29T09:22:38.883Z,3.67
2019-04-29T09:25:26.105Z,2.67
2019-04-29T09:27:56.220Z,2.92
2019-04-29T09:30:25.908Z,2.65
2019-04-29T09:32:54.375Z,3.72
2019-04-29T09:35:22.830Z,3.92
2019-04-29T09:37:53.764Z,3.62
2019-04-29T09:40:23.411Z,3.20
2019-04-29T09:42:57.168Z,3.23
2019-04-29T09:45:30.246Z,3.33
2019-04-29T09:47:58.852Z,3.00
2019-04-29T09:50:28.534Z,3.35
2019-04-29T09:52:57.214Z,3.77
2019-04-29T09:55:26.039Z,3.20
2019-04-29T09:57:54.545Z,3.37
2019-04-29T10:00:31.458Z,4.08
2019-04-29T10:03:02.889Z,4.17
2019-04-29T10:05:49.558Z,4.22
2019-04-29T10:08:18.090Z,4.40
2019-04-29T10:10:46.647Z,4.67
2019-04-29T10:13:15.091Z,5.10
2019-04-29T10:15:45.335Z,4.90
2019-04-29T10:18:18.223Z,4.60
2019-04-29T10:20:48.328Z,4.72
2019-04-29T10:23:16.778Z,4.15
2019-04-29T10:25:45.250Z,4.53
2019-04-29T10:28:13.772Z,4.25
2019-04-29T10:30:42.572Z,4.87
2019-04-29T10:33:12.946Z,4.35
2019-04-29T10:35:45.103Z,4.58
2019-04-29T10:38:11.924Z,4.60
2019-04-29T10:40:48.041Z,4.65
2019-04-29T10:43:22.284Z,4.85
2019-04-29T10:46:01.529Z,4.92
2019-04-29T10:48:31.679Z,4.62
2019-04-29T10:51:00.622Z,4.67
2019-04-29T10:53:29.217Z,4.72
2019-04-29T10:56:01.018Z,4.08
2019-04-29T10:58:31.798Z,5.10
2019-04-29T11:01:21.264Z,4.37
2019-04-29T11:04:00.704Z,5.37
2019-04-29T11:06:26.918Z,4.90
2019-04-29T11:08:57.070Z,4.05
2019-04-29T11:11:27.564Z,5.67
2019-04-29T11:13:57.672Z,4.75
2019-04-29T11:16:27.660Z,3.90
2019-04-29T11:19:00.141Z,3.30
2019-04-29T11:21:29.536Z,3.27
2019-04-29T11:24:11.390Z,3.52
2019-04-29T11:26:44.556Z,2.90
2019-04-29T11:29:11.981Z,3.25
2019-04-29T11:31:41.282Z,3.75
2019-04-29T11:34:27.226Z,3.62
2019-04-29T11:36:55.775Z,2.90
2019-04-29T11:39:24.767Z,2.92
2019-04-29T11:41:54.566Z,3.70
2019-04-29T11:44:26.471Z,3.45
2019-04-29T11:46:54.025Z,3.22
2019-04-29T11:49:24.165Z,3.40
2019-04-29T11:52:08.615Z,3.90
2019-04-29T11:54:23.194Z,3.87
2019-04-29T11:56:51.676Z,3.50
2019-04-29T11:59:21.998Z,4.30
2019-04-29T12:01:55.037Z,3.17
2019-04-29T12:04:33.485Z,3.60
2019-04-29T12:07:01.546Z,2.92
2019-04-29T12:09:32.094Z,2.60
2019-04-29T12:12:00.558Z,1.90
2019-04-29T12:14:33.800Z,2.83
2019-04-29T12:17:21.695Z,3.20
2019-04-29T12:20:08.069Z,2.80
2019-04-29T12:22:47.668Z,3.08
2019-04-29T12:25:07.255Z,3.50
2019-04-29T12:27:35.913Z,3.10
2019-04-29T12:30:10.414Z,3.15
2019-04-29T12:33:01.389Z,2.70
2019-04-29T12:35:30.220Z,3.40
2019-04-29T12:38:16.894Z,3.70
2019-04-29T12:40:59.582Z,3.25
2019-04-29T12:43:35.514Z,2.75
2019-04-29T12:46:10.254Z,3.05
2019-04-29T12:48:39.019Z,3.25
2019-04-29T12:51:07.481Z,3.15
2019-04-29T12:53:37.558Z,3.20
2019-04-29T12:56:11.366Z,3.02
2019-04-29T12:58:40.183Z,2.70
2019-04-29T13:01:13.055Z,2.77
2019-04-29T13:03:43.249Z,2.30
2019-04-29T13:06:23.918Z,2.65
2019-04-29T13:08:54.736Z,2.80
2019-04-29T13:11:35.930Z,2.77
2019-04-29T13:13:56.783Z,2.60
2019-04-29T13:16:33.150Z,2.90
2019-04-29T13:19:11.543Z,2.80
2019-04-29T13:21:33.854Z,3.05
2019-04-29T13:24:13.427Z,3.15
2019-04-29T13:26:33.331Z,2.37
2019-04-29T13:29:03.182Z,3.00
2019-04-29T13:31:38.343Z,2.75
2019-04-29T13:34:22.436Z,3.40
2019-04-29T13:36:33.937Z,2.50
2019-04-29T13:39:02.501Z,2.50
2019-04-29T13:41:31.452Z,2.33
2019-04-29T13:44:05.693Z,2.60
2019-04-29T13:46:33.673Z,2.37
2019-04-29T13:49:12.992Z,2.40
2019-04-29T13:51:44.306Z,2.60
2019-04-29T13:54:12.947Z,2.25
2019-04-29T13:56:55.403Z,2.50
2019-04-29T13:59:13.472Z,2.20
2019-04-29T14:01:58.189Z,2.62
2019-04-29T14:04:15.694Z,2.22
2019-04-29T14:06:56.571Z,2.43
2019-04-29T14:09:15.996Z,2.90
2019-04-29T14:11:44.617Z,2.90
2019-04-29T14:14:13.089Z,2.90
2019-04-29T14:16:43.079Z,2.55
2019-04-29T14:19:11.986Z,2.47
2019-04-29T14:21:43.494Z,2.45
2019-04-29T14:24:11.024Z,2.70
2019-04-29T14:26:42.108Z,2.52
2019-04-29T14:29:09.840Z,2.58
2019-04-29T14:31:38.477Z,2.60
2019-04-29T14:34:09.738Z,2.67
2019-04-29T14:36:38.211Z,2.98
2019-04-29T14:39:13.083Z,2.65
2019-04-29T14:41:40.880Z,2.60
2019-04-29T14:44:17.209Z,3.00
2019-04-29T14:47:02.638Z,3.10
2019-04-29T14:49:35.377Z,2.52
2019-04-29T14:52:03.584Z,2.83
2019-04-29T14:54:32.193Z,3.80
2019-04-29T14:57:00.722Z,3.00
2019-04-29T14:59:29.460Z,3.25
2019-04-29T15:02:05.174Z,2.25
2019-04-29T15:04:35.330Z,2.50
2019-04-29T15:07:04.176Z,2.53
2019-04-29T15:09:46.044Z,2.15
2019-04-29T15:12:04.506Z,2.80
2019-04-29T15:14:35.082Z,2.33
2019-04-29T15:17:05.307Z,2.08
2019-04-29T15:19:55.849Z,2.80
2019-04-29T15:22:31.475Z,3.12
2019-04-29T15:24:59.945Z,2.33
2019-04-29T15:27:28.415Z,2.90
2019-04-29T15:29:56.929Z,3.10
2019-04-29T15:32:28.504Z,3.22
2019-04-29T15:34:55.666Z,2.90
2019-04-29T15:37:24.196Z,3.10
2019-04-29T15:39:52.653Z,2.60
2019-04-29T15:42:21.086Z,2.70
2019-04-29T15:44:51.630Z,2.80
2019-04-29T15:47:19.864Z,3.23
2019-04-29T15:49:48.377Z,2.62
2019-04-29T15:52:21.007Z,2.90
2019-04-29T15:54:50.910Z,3.47
2019-04-29T15:57:17.429Z,3.23
2019-04-29T15:59:49.083Z,3.50
2019-04-29T16:02:16.532Z,3.47
2019-04-29T16:04:49.815Z,3.15
2019-04-29T16:07:26.161Z,3.00
2019-04-29T16:09:59.351Z,2.80
2019-04-29T16:12:29.478Z,3.40
2019-04-29T16:14:58.098Z,2.50
2019-04-29T16:17:26.590Z,4.08
2019-04-29T16:19:55.256Z,3.98
2019-04-29T16:22:23.717Z,3.72
2019-04-29T16:24:59.015Z,3.40
2019-04-29T16:27:22.376Z,3.20
2019-04-29T16:29:51.738Z,3.80
2019-04-29T16:32:28.614Z,3.92
2019-04-29T16:34:57.194Z,3.77
2019-04-29T16:37:31.928Z,3.60
2019-04-29T16:39:59.566Z,3.50
2019-04-29T16:42:30.768Z,3.70
2019-04-29T16:44:59.317Z,2.40
2019-04-29T16:47:28.691Z,2.83
2019-04-29T16:49:57.575Z,2.22
2019-04-29T16:52:27.463Z,2.30
2019-04-29T16:54:58.900Z,2.10
2019-04-29T16:57:26.457Z,2.20
2019-04-29T16:59:54.949Z,2.50
2019-04-29T17:02:23.747Z,2.95
2019-04-29T17:04:52.317Z,3.05
2019-04-29T17:07:20.820Z,2.90
2019-04-29T17:09:51.111Z,3.45
2019-04-29T17:12:19.640Z,2.95
2019-04-29T17:15:02.890Z,3.22
2019-04-29T17:17:28.516Z,2.60
2019-04-29T17:19:50.251Z,2.42
2019-04-29T17:22:27.443Z,2.12
2019-04-29T17:24:49.097Z,2.30
2019-04-29T17:27:19.671Z,2.30
2019-04-29T17:30:07.619Z,1.87
2019-04-29T17:32:44.069Z,3.05
2019-04-29T17:35:12.194Z,3.15
2019-04-29T17:37:40.769Z,3.22
2019-04-29T17:40:10.556Z,3.77
2019-04-29T17:42:40.775Z,3.75
2019-04-29T17:45:10.907Z,5.08
2019-04-29T17:47:42.516Z,4.50
2019-04-29T17:50:30.861Z,6.50
2019-04-29T17:52:59.259Z,4.42
2019-04-29T17:55:40.984Z,4.87
2019-04-29T17:58:11.362Z,4.47
2019-04-29T18:00:59.589Z,4.65
2019-04-29T18:03:29.643Z,4.58
2019-04-29T18:06:02.204Z,4.67
2019-04-29T18:08:34.810Z,3.83
2019-04-29T18:11:07.990Z,4.22
2019-04-29T18:16:17.279Z,6.20
2019-04-29T18:18:53.216Z,5.20
2019-04-29T18:21:28.504Z,4.42
2019-04-29T18:24:01.354Z,9.45
2019-04-29T18:26:49.961Z,12.98
2019-04-29T18:29:19.926Z,15.63
2019-04-29T18:31:48.443Z,8.28
2019-04-29T18:34:17.014Z,4.15
2019-04-29T18:36:45.875Z,4.40
2019-04-29T18:39:20.145Z,3.90
2019-04-29T18:41:46.619Z,3.72
2019-04-29T18:44:19.234Z,3.85
2019-04-29T18:46:53.087Z,4.40
2019-04-29T18:49:15.959Z,3.80
2019-04-29T18:51:45.565Z,4.10
2019-04-29T18:54:14.276Z,4.83
2019-04-29T18:56:42.811Z,4.97
2019-04-29T18:59:11.421Z,4.20
2019-04-29T19:01:39.945Z,3.55
2019-04-29T19:04:17.385Z,4.80
2019-04-29T19:06:46.227Z,4.17
2019-04-29T19:09:20.097Z,4.20
2019-04-29T19:11:46.340Z,5.40
2019-04-29T19:14:15.179Z,5.40
2019-04-29T19:16:43.808Z,4.55
2019-04-29T19:19:15.388Z,4.70
2019-04-29T19:21:45.531Z,3.75
2019-04-29T19:24:16.194Z,4.50
2019-04-29T19:26:44.954Z,5.37
2019-04-29T19:29:15.483Z,5.20
2019-04-29T19:31:48.762Z,6.67
2019-04-29T19:34:18.527Z,5.53
2019-04-29T19:36:45.146Z,6.50
2019-04-29T19:39:16.889Z,5.65
2019-04-29T19:41:49.336Z,6.60
2019-04-29T19:44:15.527Z,7.13
2019-04-29T19:46:45.369Z,6.90
2019-04-29T19:49:15.697Z,5.85
2019-04-29T19:51:47.312Z,6.42
2019-04-29T19:54:18.547Z,8.37
2019-04-29T19:56:45.113Z,6.67
2019-04-29T19:59:16.597Z,7.15
2019-04-29T20:01:48.457Z,5.45
2019-04-29T20:04:22.418Z,5.60
2019-04-29T20:06:49.178Z,5.62
2019-04-29T20:09:22.624Z,6.72
2019-04-29T20:11:50.595Z,6.03
2019-04-29T20:14:26.392Z,6.33
2019-04-29T20:17:12.762Z,6.10
2019-04-29T20:19:46.000Z,5.53
2019-04-29T20:22:16.069Z,6.40
2019-04-29T20:24:49.728Z,5.53
2019-04-29T20:27:15.154Z,7.78
2019-04-29T20:29:45.608Z,7.15
2019-04-29T20:32:15.788Z,7.35
2019-04-29T20:34:45.881Z,6.85
2019-04-29T20:37:16.216Z,6.20
2019-04-29T20:39:45.626Z,6.05
2019-04-29T20:42:15.930Z,6.42
2019-04-29T20:44:48.412Z,6.87
2019-04-29T20:47:22.699Z,5.10
2019-04-29T20:49:45.307Z,7.20
2019-04-29T20:52:21.711Z,6.78
2019-04-29T20:54:57.844Z,7.37
2019-04-29T20:57:22.094Z,7.47
2019-04-29T20:59:50.540Z,7.53
2019-04-29T21:02:30.188Z,6.50
2019-04-29T21:04:49.736Z,6.65
2019-04-29T21:07:23.620Z,7.28
2019-04-29T21:09:48.749Z,7.47
2019-04-29T21:12:34.737Z,7.03
2019-04-29T21:15:07.437Z,7.70
2019-04-29T21:17:40.275Z,8.23
2019-04-29T21:20:06.738Z,6.90
2019-04-29T21:22:35.696Z,8.18
2019-04-29T21:25:06.178Z,8.48
2019-04-29T21:27:35.310Z,7.63
2019-04-29T21:30:08.198Z,8.98
2019-04-29T21:32:38.998Z,8.00
2019-04-29T21:35:25.020Z,6.03
2019-04-29T21:38:12.619Z,8.93
2019-04-29T21:40:46.152Z,10.40
2019-04-29T21:43:18.920Z,11.30
2019-04-29T21:45:48.464Z,10.72
2019-04-29T21:48:17.115Z,12.20
2019-04-29T21:50:45.605Z,10.08
2019-04-29T21:53:15.122Z,9.03
2019-04-29T21:55:45.629Z,10.08
2019-04-29T21:58:14.211Z,8.90
2019-04-29T22:00:45.328Z,7.87
2019-04-29T22:03:15.290Z,7.30
2019-04-29T22:05:45.068Z,7.73
2019-04-29T22:08:35.470Z,8.45
2019-04-29T22:11:07.007Z,8.10
2019-04-29T22:13:39.000Z,13.30
2019-04-29T22:16:06.286Z,11.78
2019-04-29T22:18:35.585Z,10.53
2019-04-29T22:21:06.559Z,11.28
2019-04-29T22:23:35.294Z,8.98
2019-04-29T22:26:05.059Z,8.53
2019-04-29T22:28:35.114Z,8.95
2019-04-29T22:31:05.413Z,9.63
2019-04-29T22:33:37.004Z,10.27
2019-04-29T22:36:05.315Z,8.50
2019-04-29T22:38:35.877Z,9.10
2019-04-29T22:41:05.984Z,9.83
2019-04-29T22:43:40.274Z,9.55
2019-04-29T22:46:09.356Z,8.48
2019-04-29T22:48:40.521Z,8.50
2019-04-29T22:51:10.192Z,8.80
2019-04-29T22:53:40.030Z,8.90
2019-04-29T22:56:08.923Z,10.17
2019-04-29T22:58:39.489Z,10.10
2019-04-29T23:01:08.636Z,9.97
2019-04-29T23:03:37.910Z,9.25
2019-04-29T23:06:08.486Z,7.50
2019-04-29T23:08:38.174Z,10.95
2019-04-29T23:11:06.910Z,10.63
2019-04-29T23:13:35.464Z,10.88
2019-04-29T23:16:05.614Z,7.20
2019-04-29T23:18:42.260Z,10.88
2019-04-29T23:21:22.485Z,8.60
2019-04-29T23:23:52.668Z,9.08
2019-04-29T23:26:21.207Z,9.68
2019-04-29T23:28:49.758Z,10.88
2019-04-29T23:31:18.211Z,10.43
2019-04-29T23:33:46.747Z,10.48
2019-04-29T23:36:16.033Z,13.62
2019-04-29T23:38:44.649Z,12.25
2019-04-29T23:41:13.169Z,14.13
2019-04-29T23:43:42.019Z,12.28
2019-04-29T23:46:10.542Z,12.23
2019-04-29T23:48:39.755Z,14.63
2019-04-29T23:51:08.468Z,12.25
2019-04-29T23:53:37.105Z,15.23
2019-04-29T23:56:09.707Z,14.83
2019-04-29T23:58:53.067Z,18.45
